sensor_id;sensor_type;location;lat;lon;timestamp;temperature;humidity
33645;DHT22;19986;48.190;16.366;2022-11-14T05:05:10;10.00;99.90
33645;DHT22;19986;48.190;16.366;2022-11-14T05:07:36;10.10;99.90
33645;DHT22;19986;48.190;16.366;2022-11-14T05:10:03;10.10;99.90
33645;DHT22;19986;48.190;16.366;2022-11-14T05:12:29;10.10;99.90
33645;DHT22;19986;48.190;16.366;2022-11-14T05:14:55;10.10;99.90
33645;DHT22;19986;48.190;16.366;2022-11-14T05:17:21;10.00;99.90
33645;DHT22;19986;48.190;16.366;2022-11-14T05:19:47;10.00;99.90
33645;DHT22;19986;48.190;16.366;2022-11-14T05:22:13;10.00;99.90
33645;DHT22;19986;48.190;16.366;2022-11-14T05:24:39;10.00;99.90
33645;DHT22;19986;48.190;16.366;2022-11-14T05:27:05;10.00;99.90
33645;DHT22;19986;48.190;16.366;2022-11-14T05:29:31;10.00;99.90
33645;DHT22;19986;48.190;16.366;2022-11-14T05:31:56;10.00;99.90
33645;DHT22;19986;48.190;16.366;2022-11-14T05:34:23;10.00;99.90
33645;DHT22;19986;48.190;16.366;2022-11-14T05:36:48;10.00;99.90
33645;DHT22;19986;48.190;16.366;2022-11-14T05:39:15;10.00;99.90
33645;DHT22;19986;48.190;16.366;2022-11-14T05:41:41;10.00;99.90
33645;DHT22;19986;48.190;16.366;2022-11-14T05:44:07;10.00;99.90
33645;DHT22;19986;48.190;16.366;2022-11-14T05:46:32;10.00;99.90
33645;DHT22;19986;48.190;16.366;2022-11-14T05:48:58;10.00;99.90
33645;DHT22;19986;48.190;16.366;2022-11-14T05:51:24;9.90;99.90
33645;DHT22;19986;48.190;16.366;2022-11-14T05:53:50;9.90;99.90
33645;DHT22;19986;48.190;16.366;2022-11-14T05:56:16;9.90;99.90
33645;DHT22;19986;48.190;16.366;2022-11-14T05:58:42;10.00;99.90
33645;DHT22;19986;48.190;16.366;2022-11-14T06:01:10;9.90;99.90
33645;DHT22;19986;48.190;16.366;2022-11-14T06:03:39;9.90;99.90
33645;DHT22;19986;48.190;16.366;2022-11-14T06:06:07;10.00;99.90
33645;DHT22;19986;48.190;16.366;2022-11-14T06:08:34;10.00;99.90
33645;DHT22;19986;48.190;16.366;2022-11-14T06:11:08;10.00;99.90
33645;DHT22;19986;48.190;16.366;2022-11-14T06:13:34;10.00;99.90
33645;DHT22;19986;48.190;16.366;2022-11-14T06:16:01;10.00;99.90
33645;DHT22;19986;48.190;16.366;2022-11-14T06:18:28;10.10;99.90
33645;DHT22;19986;48.190;16.366;2022-11-14T06:21:09;10.10;99.90
33645;DHT22;19986;48.190;16.366;2022-11-14T06:23:35;10.20;99.90
33645;DHT22;19986;48.190;16.366;2022-11-14T06:26:04;10.20;99.90
33645;DHT22;19986;48.190;16.366;2022-11-14T06:28:30;10.20;99.90
33645;DHT22;19986;48.190;16.366;2022-11-14T06:31:00;10.20;99.90
33645;DHT22;19986;48.190;16.366;2022-11-14T06:33:27;10.10;99.90
33645;DHT22;19986;48.190;16.366;2022-11-14T06:36:02;10.10;99.90
33645;DHT22;19986;48.190;16.366;2022-11-14T06:38:34;10.10;99.90
33645;DHT22;19986;48.190;16.366;2022-11-14T06:43:41;10.10;99.90
33645;DHT22;19986;48.190;16.366;2022-11-14T06:46:09;10.20;99.90
33645;DHT22;19986;48.190;16.366;2022-11-14T06:48:36;10.20;99.90
33645;DHT22;19986;48.190;16.366;2022-11-14T06:51:03;10.20;99.90
33645;DHT22;19986;48.190;16.366;2022-11-14T06:53:31;10.30;99.90
33645;DHT22;19986;48.190;16.366;2022-11-14T06:56:05;10.20;99.90
33645;DHT22;19986;48.190;16.366;2022-11-14T06:58:34;10.20;99.90
33645;DHT22;19986;48.190;16.366;2022-11-14T07:01:11;10.30;99.90
33645;DHT22;19986;48.190;16.366;2022-11-14T07:03:37;10.20;99.90
33645;DHT22;19986;48.190;16.366;2022-11-14T07:06:04;10.30;99.90
33645;DHT22;19986;48.190;16.366;2022-11-14T07:08:31;10.30;99.90
33645;DHT22;19986;48.190;16.366;2022-11-14T07:11:04;10.30;99.90
33645;DHT22;19986;48.190;16.366;2022-11-14T07:13:31;10.30;99.90
33645;DHT22;19986;48.190;16.366;2022-11-14T07:15:57;10.30;99.90
33645;DHT22;19986;48.190;16.366;2022-11-14T07:18:23;10.30;99.90
33645;DHT22;19986;48.190;16.366;2022-11-14T07:20:49;10.20;99.90
33645;DHT22;19986;48.190;16.366;2022-11-14T07:23:15;10.20;99.90
33645;DHT22;19986;48.190;16.366;2022-11-14T07:25:41;10.30;99.90
33645;DHT22;19986;48.190;16.366;2022-11-14T07:28:07;10.40;99.90
33645;DHT22;19986;48.190;16.366;2022-11-14T07:30:33;10.50;99.90
33645;DHT22;19986;48.190;16.366;2022-11-14T07:32:59;10.50;99.90
33645;DHT22;19986;48.190;16.366;2022-11-14T07:35:25;10.50;99.90
33645;DHT22;19986;48.190;16.366;2022-11-14T07:37:51;10.60;99.90
33645;DHT22;19986;48.190;16.366;2022-11-14T07:40:17;10.70;99.90
33645;DHT22;19986;48.190;16.366;2022-11-14T07:42:43;10.90;99.90
33645;DHT22;19986;48.190;16.366;2022-11-14T07:45:10;11.00;99.90
33645;DHT22;19986;48.190;16.366;2022-11-14T07:47:36;11.00;99.90
33645;DHT22;19986;48.190;16.366;2022-11-14T07:50:02;10.90;99.90
33645;DHT22;19986;48.190;16.366;2022-11-14T07:52:28;10.90;99.90
33645;DHT22;19986;48.190;16.366;2022-11-14T07:54:56;10.80;99.90
33645;DHT22;19986;48.190;16.366;2022-11-14T07:57:21;10.60;99.90
33645;DHT22;19986;48.190;16.366;2022-11-14T07:59:47;10.60;99.90
33645;DHT22;19986;48.190;16.366;2022-11-14T08:02:14;10.60;99.90
33645;DHT22;19986;48.190;16.366;2022-11-14T08:04:40;10.60;99.90
33645;DHT22;19986;48.190;16.366;2022-11-14T08:07:07;10.60;99.90
33645;DHT22;19986;48.190;16.366;2022-11-14T08:09:33;10.60;99.90
33645;DHT22;19986;48.190;16.366;2022-11-14T08:11:59;10.60;99.90
33645;DHT22;19986;48.190;16.366;2022-11-14T08:14:25;10.50;99.90
33645;DHT22;19986;48.190;16.366;2022-11-14T08:16:51;10.50;99.90
33645;DHT22;19986;48.190;16.366;2022-11-14T08:19:17;10.60;99.90
33645;DHT22;19986;48.190;16.366;2022-11-14T08:21:43;10.80;99.90
33645;DHT22;19986;48.190;16.366;2022-11-14T08:24:09;10.90;99.90
33645;DHT22;19986;48.190;16.366;2022-11-14T08:26:35;10.80;99.90
33645;DHT22;19986;48.190;16.366;2022-11-14T08:29:01;10.70;99.90
33645;DHT22;19986;48.190;16.366;2022-11-14T08:31:27;10.80;99.90
33645;DHT22;19986;48.190;16.366;2022-11-14T08:33:53;10.80;99.90
33645;DHT22;19986;48.190;16.366;2022-11-14T08:36:19;10.70;99.90
33645;DHT22;19986;48.190;16.366;2022-11-14T08:38:45;10.70;99.90
33645;DHT22;19986;48.190;16.366;2022-11-14T08:41:11;10.80;99.90
33645;DHT22;19986;48.190;16.366;2022-11-14T08:43:36;10.80;99.90
33645;DHT22;19986;48.190;16.366;2022-11-14T08:46:03;10.80;99.90
33645;DHT22;19986;48.190;16.366;2022-11-14T08:48:30;10.90;99.90
33645;DHT22;19986;48.190;16.366;2022-11-14T08:51:00;10.90;99.90
33645;DHT22;19986;48.190;16.366;2022-11-14T08:53:26;10.90;99.90
33645;DHT22;19986;48.190;16.366;2022-11-14T08:55:52;11.00;99.90
33645;DHT22;19986;48.190;16.366;2022-11-14T08:58:18;11.00;99.90
33645;DHT22;19986;48.190;16.366;2022-11-14T09:00:43;11.00;99.90
33645;DHT22;19986;48.190;16.366;2022-11-14T09:03:12;11.10;99.90
33645;DHT22;19986;48.190;16.366;2022-11-14T09:05:39;11.30;99.90
33645;DHT22;19986;48.190;16.366;2022-11-14T09:08:05;11.40;99.90
33645;DHT22;19986;48.190;16.366;2022-11-14T09:10:33;11.50;99.90
33645;DHT22;19986;48.190;16.366;2022-11-14T09:13:00;11.50;99.90
33645;DHT22;19986;48.190;16.366;2022-11-14T09:15:30;11.50;99.90
33645;DHT22;19986;48.190;16.366;2022-11-14T09:17:56;11.50;99.90
33645;DHT22;19986;48.190;16.366;2022-11-14T09:20:23;11.50;99.90
33645;DHT22;19986;48.190;16.366;2022-11-14T09:22:49;11.40;99.90
33645;DHT22;19986;48.190;16.366;2022-11-14T09:25:20;11.30;99.90
33645;DHT22;19986;48.190;16.366;2022-11-14T09:27:46;11.30;99.90
33645;DHT22;19986;48.190;16.366;2022-11-14T09:30:13;11.30;99.90
33645;DHT22;19986;48.190;16.366;2022-11-14T09:32:40;11.50;99.90
33645;DHT22;19986;48.190;16.366;2022-11-14T09:35:06;11.50;99.90
33645;DHT22;19986;48.190;16.366;2022-11-14T09:37:32;11.70;99.90
33645;DHT22;19986;48.190;16.366;2022-11-14T09:39:58;11.70;99.90
33645;DHT22;19986;48.190;16.366;2022-11-14T09:45:14;11.90;99.90
33645;DHT22;19986;48.190;16.366;2022-11-14T09:47:43;12.00;99.90
33645;DHT22;19986;48.190;16.366;2022-11-14T09:50:18;12.00;99.90
33645;DHT22;19986;48.190;16.366;2022-11-14T09:56:25;12.40;99.90
33645;DHT22;19986;48.190;16.366;2022-11-14T09:58:52;12.30;99.90
33645;DHT22;19986;48.190;16.366;2022-11-14T10:01:42;12.30;99.90
33645;DHT22;19986;48.190;16.366;2022-11-14T10:04:23;12.40;99.90
33645;DHT22;19986;48.190;16.366;2022-11-14T10:12:26;12.60;99.90
33645;DHT22;19986;48.190;16.366;2022-11-14T10:31:19;12.80;99.90
33645;DHT22;19986;48.190;16.366;2022-11-14T10:33:58;12.80;99.90
33645;DHT22;19986;48.190;16.366;2022-11-14T10:39:40;12.80;99.90
33645;DHT22;19986;48.190;16.366;2022-11-14T10:42:18;12.90;99.90
33645;DHT22;19986;48.190;16.366;2022-11-14T10:44:59;12.80;99.90
33645;DHT22;19986;48.190;16.366;2022-11-14T10:47:40;12.80;99.90
33645;DHT22;19986;48.190;16.366;2022-11-14T10:50:26;12.90;99.90
33645;DHT22;19986;48.190;16.366;2022-11-14T10:52:57;12.90;99.90
33645;DHT22;19986;48.190;16.366;2022-11-14T10:55:25;12.70;99.90
33645;DHT22;19986;48.190;16.366;2022-11-14T10:57:51;12.70;99.90
33645;DHT22;19986;48.190;16.366;2022-11-14T11:00:21;12.70;99.90
33645;DHT22;19986;48.190;16.366;2022-11-14T11:02:56;12.70;99.90
33645;DHT22;19986;48.190;16.366;2022-11-14T11:05:24;12.80;99.90
33645;DHT22;19986;48.190;16.366;2022-11-14T11:07:52;12.70;99.90
33645;DHT22;19986;48.190;16.366;2022-11-14T11:10:41;12.60;99.90
33645;DHT22;19986;48.190;16.366;2022-11-14T11:13:47;12.70;99.90
33645;DHT22;19986;48.190;16.366;2022-11-14T11:16:20;12.70;99.90
33645;DHT22;19986;48.190;16.366;2022-11-14T11:18:46;12.80;99.90
33645;DHT22;19986;48.190;16.366;2022-11-14T11:21:15;12.70;99.90
33645;DHT22;19986;48.190;16.366;2022-11-14T11:23:56;12.80;99.90
33645;DHT22;19986;48.190;16.366;2022-11-14T11:26:25;12.80;99.90
33645;DHT22;19986;48.190;16.366;2022-11-14T11:34:17;12.70;99.90
33645;DHT22;19986;48.190;16.366;2022-11-14T11:36:49;12.60;99.90
33645;DHT22;19986;48.190;16.366;2022-11-14T11:39:22;12.60;99.90
33645;DHT22;19986;48.190;16.366;2022-11-14T11:41:51;12.50;99.90
33645;DHT22;19986;48.190;16.366;2022-11-14T11:44:20;12.50;99.90
33645;DHT22;19986;48.190;16.366;2022-11-14T11:46:55;12.40;99.90
33645;DHT22;19986;48.190;16.366;2022-11-14T11:49:47;12.40;99.90
33645;DHT22;19986;48.190;16.366;2022-11-14T11:52:18;12.50;99.90
33645;DHT22;19986;48.190;16.366;2022-11-14T11:57:50;12.50;99.90
33645;DHT22;19986;48.190;16.366;2022-11-14T12:00:19;12.50;99.90
33645;DHT22;19986;48.190;16.366;2022-11-14T12:02:47;12.50;99.90
33645;DHT22;19986;48.190;16.366;2022-11-14T12:08:05;12.50;99.90
33645;DHT22;19986;48.190;16.366;2022-11-14T12:10:37;12.50;99.90
33645;DHT22;19986;48.190;16.366;2022-11-14T12:13:35;12.50;99.90
33645;DHT22;19986;48.190;16.366;2022-11-14T12:30:15;12.50;99.90
33645;DHT22;19986;48.190;16.366;2022-11-14T12:35:27;12.40;99.90
33645;DHT22;19986;48.190;16.366;2022-11-14T12:37:56;12.40;99.90
33645;DHT22;19986;48.190;16.366;2022-11-14T12:42:57;12.50;99.90
33645;DHT22;19986;48.190;16.366;2022-11-14T12:50:41;12.70;99.90
33645;DHT22;19986;48.190;16.366;2022-11-14T13:09:31;12.80;99.90
33645;DHT22;19986;48.190;16.366;2022-11-14T13:12:36;12.90;99.90
33645;DHT22;19986;48.190;16.366;2022-11-14T13:15:32;12.80;99.90
33645;DHT22;19986;48.190;16.366;2022-11-14T13:21:04;12.70;99.90
33645;DHT22;19986;48.190;16.366;2022-11-14T13:28:47;12.50;99.90
33645;DHT22;19986;48.190;16.366;2022-11-14T13:31:24;12.50;99.90
33645;DHT22;19986;48.190;16.366;2022-11-14T13:33:57;12.50;99.90
33645;DHT22;19986;48.190;16.366;2022-11-14T13:39:07;12.50;99.90
33645;DHT22;19986;48.190;16.366;2022-11-14T13:52:12;12.50;99.90
33645;DHT22;19986;48.190;16.366;2022-11-14T13:54:45;12.50;99.90
33645;DHT22;19986;48.190;16.366;2022-11-14T14:00:11;12.50;99.90
33645;DHT22;19986;48.190;16.366;2022-11-14T14:02:56;12.40;99.90
33645;DHT22;19986;48.190;16.366;2022-11-14T14:11:01;12.60;99.90
33645;DHT22;19986;48.190;16.366;2022-11-14T14:16:33;12.40;99.90
33645;DHT22;19986;48.190;16.366;2022-11-14T14:25:03;12.10;99.90
33645;DHT22;19986;48.190;16.366;2022-11-14T14:30:21;11.80;99.90
33645;DHT22;19986;48.190;16.366;2022-11-14T14:35:34;11.60;99.90
33645;DHT22;19986;48.190;16.366;2022-11-14T14:38:00;11.50;99.90
33645;DHT22;19986;48.190;16.366;2022-11-14T14:40:30;11.50;99.90
33645;DHT22;19986;48.190;16.366;2022-11-14T14:43:00;11.40;99.90
33645;DHT22;19986;48.190;16.366;2022-11-14T14:45:28;11.40;99.90
33645;DHT22;19986;48.190;16.366;2022-11-14T14:48:14;11.30;99.90
33645;DHT22;19986;48.190;16.366;2022-11-14T14:50:47;11.30;99.90
33645;DHT22;19986;48.190;16.366;2022-11-14T14:55:54;11.30;99.90
33645;DHT22;19986;48.190;16.366;2022-11-14T15:01:19;11.20;99.90
33645;DHT22;19986;48.190;16.366;2022-11-14T15:03:49;11.30;99.90
33645;DHT22;19986;48.190;16.366;2022-11-14T15:06:25;11.20;99.90
33645;DHT22;19986;48.190;16.366;2022-11-14T15:08:59;11.10;99.90
33645;DHT22;19986;48.190;16.366;2022-11-14T15:11:27;11.10;99.90
33645;DHT22;19986;48.190;16.366;2022-11-14T15:13:57;11.00;99.90
33645;DHT22;19986;48.190;16.366;2022-11-14T15:16:24;11.00;99.90
33645;DHT22;19986;48.190;16.366;2022-11-14T15:18:52;11.00;99.90
33645;DHT22;19986;48.190;16.366;2022-11-14T15:23:45;11.00;99.90
33645;DHT22;19986;48.190;16.366;2022-11-14T15:26:15;11.00;99.90
33645;DHT22;19986;48.190;16.366;2022-11-14T15:28:42;11.00;99.90
33645;DHT22;19986;48.190;16.366;2022-11-14T15:31:21;11.10;99.90
33645;DHT22;19986;48.190;16.366;2022-11-14T15:34:01;11.00;99.90
33645;DHT22;19986;48.190;16.366;2022-11-14T15:36:28;11.00;99.90
33645;DHT22;19986;48.190;16.366;2022-11-14T15:39:26;11.00;99.90
33645;DHT22;19986;48.190;16.366;2022-11-14T15:44:49;10.90;99.90
33645;DHT22;19986;48.190;16.366;2022-11-14T15:49:59;10.80;99.90
33645;DHT22;19986;48.190;16.366;2022-11-14T15:52:37;10.80;99.90
33645;DHT22;19986;48.190;16.366;2022-11-14T15:55:18;10.80;99.90
33645;DHT22;19986;48.190;16.366;2022-11-14T15:57:44;10.80;99.90
33645;DHT22;19986;48.190;16.366;2022-11-14T16:00:13;10.80;99.90
33645;DHT22;19986;48.190;16.366;2022-11-14T16:02:46;10.90;99.90
33645;DHT22;19986;48.190;16.366;2022-11-14T16:05:14;10.90;99.90
33645;DHT22;19986;48.190;16.366;2022-11-14T16:07:40;10.80;99.90
33645;DHT22;19986;48.190;16.366;2022-11-14T16:10:14;10.90;99.90
33645;DHT22;19986;48.190;16.366;2022-11-14T16:12:40;10.90;99.90
33645;DHT22;19986;48.190;16.366;2022-11-14T16:15:06;10.90;99.90
33645;DHT22;19986;48.190;16.366;2022-11-14T16:17:40;10.90;99.90
33645;DHT22;19986;48.190;16.366;2022-11-14T16:20:13;10.90;99.90
33645;DHT22;19986;48.190;16.366;2022-11-14T16:22:43;10.80;99.90
33645;DHT22;19986;48.190;16.366;2022-11-14T16:25:22;10.80;99.90
33645;DHT22;19986;48.190;16.366;2022-11-14T16:27:48;10.70;99.90
33645;DHT22;19986;48.190;16.366;2022-11-14T16:30:17;10.70;99.90
33645;DHT22;19986;48.190;16.366;2022-11-14T16:32:46;10.70;99.90
33645;DHT22;19986;48.190;16.366;2022-11-14T16:35:13;10.70;99.90
33645;DHT22;19986;48.190;16.366;2022-11-14T16:37:40;10.70;99.90
33645;DHT22;19986;48.190;16.366;2022-11-14T16:40:09;10.70;99.90
33645;DHT22;19986;48.190;16.366;2022-11-14T16:42:37;10.70;99.90
33645;DHT22;19986;48.190;16.366;2022-11-14T16:45:03;10.70;99.90
33645;DHT22;19986;48.190;16.366;2022-11-14T16:47:29;10.70;99.90
33645;DHT22;19986;48.190;16.366;2022-11-14T16:49:58;10.70;99.90
33645;DHT22;19986;48.190;16.366;2022-11-14T16:52:26;10.60;99.90
33645;DHT22;19986;48.190;16.366;2022-11-14T16:54:52;10.60;99.90
33645;DHT22;19986;48.190;16.366;2022-11-14T16:57:23;10.60;99.90
33645;DHT22;19986;48.190;16.366;2022-11-14T16:59:49;10.60;99.90
33645;DHT22;19986;48.190;16.366;2022-11-14T17:02:17;10.60;99.90
33645;DHT22;19986;48.190;16.366;2022-11-14T17:04:43;10.60;99.90
33645;DHT22;19986;48.190;16.366;2022-11-14T17:07:11;10.60;99.90
33645;DHT22;19986;48.190;16.366;2022-11-14T17:09:37;10.60;99.90
33645;DHT22;19986;48.190;16.366;2022-11-14T17:12:04;10.60;99.90
33645;DHT22;19986;48.190;16.366;2022-11-14T17:14:31;10.50;99.90
33645;DHT22;19986;48.190;16.366;2022-11-14T17:16:57;10.60;99.90
33645;DHT22;19986;48.190;16.366;2022-11-14T17:19:23;10.60;99.90
33645;DHT22;19986;48.190;16.366;2022-11-14T17:21:50;10.60;99.90
33645;DHT22;19986;48.190;16.366;2022-11-14T17:24:19;10.60;99.90
33645;DHT22;19986;48.190;16.366;2022-11-14T17:26:44;10.60;99.90
33645;DHT22;19986;48.190;16.366;2022-11-14T17:29:10;10.60;99.90
33645;DHT22;19986;48.190;16.366;2022-11-14T17:31:37;10.60;99.90
33645;DHT22;19986;48.190;16.366;2022-11-14T17:34:03;10.50;99.90
33645;DHT22;19986;48.190;16.366;2022-11-14T17:36:30;10.60;99.90
33645;DHT22;19986;48.190;16.366;2022-11-14T17:38:56;10.50;99.90
33645;DHT22;19986;48.190;16.366;2022-11-14T17:41:23;10.60;99.90
33645;DHT22;19986;48.190;16.366;2022-11-14T17:43:53;10.60;99.90
33645;DHT22;19986;48.190;16.366;2022-11-14T17:46:28;10.60;99.90
33645;DHT22;19986;48.190;16.366;2022-11-14T17:48:54;10.60;99.90
33645;DHT22;19986;48.190;16.366;2022-11-14T17:51:21;10.60;99.90
33645;DHT22;19986;48.190;16.366;2022-11-14T17:53:47;10.50;99.90
33645;DHT22;19986;48.190;16.366;2022-11-14T17:56:15;10.50;99.90
33645;DHT22;19986;48.190;16.366;2022-11-14T17:58:42;10.60;99.90
33645;DHT22;19986;48.190;16.366;2022-11-14T18:01:14;10.50;99.90
33645;DHT22;19986;48.190;16.366;2022-11-14T18:03:41;10.50;99.90
33645;DHT22;19986;48.190;16.366;2022-11-14T18:06:09;10.50;99.90
33645;DHT22;19986;48.190;16.366;2022-11-14T18:08:36;10.60;99.90
33645;DHT22;19986;48.190;16.366;2022-11-14T18:11:04;10.60;99.90
33645;DHT22;19986;48.190;16.366;2022-11-14T18:13:32;10.60;99.90
33645;DHT22;19986;48.190;16.366;2022-11-14T18:16:15;10.60;99.90
33645;DHT22;19986;48.190;16.366;2022-11-14T18:18:42;10.60;99.90
33645;DHT22;19986;48.190;16.366;2022-11-14T18:21:11;10.60;99.90
33645;DHT22;19986;48.190;16.366;2022-11-14T18:23:38;10.50;99.90
33645;DHT22;19986;48.190;16.366;2022-11-14T18:26:13;10.60;99.90
33645;DHT22;19986;48.190;16.366;2022-11-14T18:28:40;10.50;99.90
33645;DHT22;19986;48.190;16.366;2022-11-14T18:31:08;10.50;99.90
33645;DHT22;19986;48.190;16.366;2022-11-14T18:33:39;10.40;99.90
33645;DHT22;19986;48.190;16.366;2022-11-14T18:36:11;10.40;99.90
33645;DHT22;19986;48.190;16.366;2022-11-14T18:38:39;10.40;99.90
33645;DHT22;19986;48.190;16.366;2022-11-14T18:41:08;10.40;99.90
33645;DHT22;19986;48.190;16.366;2022-11-14T18:43:35;10.40;99.90
33645;DHT22;19986;48.190;16.366;2022-11-14T18:46:11;10.40;99.90
33645;DHT22;19986;48.190;16.366;2022-11-14T18:48:39;10.40;99.90
33645;DHT22;19986;48.190;16.366;2022-11-14T18:51:11;10.50;99.90
33645;DHT22;19986;48.190;16.366;2022-11-14T18:53:37;10.50;99.90
33645;DHT22;19986;48.190;16.366;2022-11-14T18:56:12;10.40;99.90
33645;DHT22;19986;48.190;16.366;2022-11-14T18:58:40;10.40;99.90
33645;DHT22;19986;48.190;16.366;2022-11-14T19:01:18;10.30;99.90
33645;DHT22;19986;48.190;16.366;2022-11-14T19:03:54;10.30;99.90
33645;DHT22;19986;48.190;16.366;2022-11-14T19:06:24;10.30;99.90
33645;DHT22;19986;48.190;16.366;2022-11-14T19:08:56;10.30;99.90
33645;DHT22;19986;48.190;16.366;2022-11-14T19:11:22;10.30;99.90
33645;DHT22;19986;48.190;16.366;2022-11-14T19:14:08;10.20;99.90
33645;DHT22;19986;48.190;16.366;2022-11-14T19:16:35;10.20;99.90
33645;DHT22;19986;48.190;16.366;2022-11-14T19:19:03;10.20;99.90
33645;DHT22;19986;48.190;16.366;2022-11-14T19:21:30;10.20;99.90
33645;DHT22;19986;48.190;16.366;2022-11-14T19:23:57;10.10;99.90
33645;DHT22;19986;48.190;16.366;2022-11-14T19:26:27;10.10;99.90
33645;DHT22;19986;48.190;16.366;2022-11-14T19:28:56;10.10;99.90
33645;DHT22;19986;48.190;16.366;2022-11-14T19:31:22;10.10;99.90
33645;DHT22;19986;48.190;16.366;2022-11-14T19:33:49;10.00;99.90
33645;DHT22;19986;48.190;16.366;2022-11-14T19:36:20;10.00;99.90
33645;DHT22;19986;48.190;16.366;2022-11-14T19:38:51;10.10;99.90
33645;DHT22;19986;48.190;16.366;2022-11-14T19:41:19;10.10;99.90
33645;DHT22;19986;48.190;16.366;2022-11-14T19:43:46;10.10;99.90
33645;DHT22;19986;48.190;16.366;2022-11-14T19:46:13;10.20;99.90
33645;DHT22;19986;48.190;16.366;2022-11-14T19:48:43;10.20;99.90
33645;DHT22;19986;48.190;16.366;2022-11-14T19:51:12;10.20;99.90
33645;DHT22;19986;48.190;16.366;2022-11-14T19:53:39;10.20;99.90
33645;DHT22;19986;48.190;16.366;2022-11-14T19:56:13;10.20;99.90
33645;DHT22;19986;48.190;16.366;2022-11-14T19:58:41;10.30;99.90
33645;DHT22;19986;48.190;16.366;2022-11-14T20:01:10;10.20;99.90
33645;DHT22;19986;48.190;16.366;2022-11-14T20:03:36;10.20;99.90
33645;DHT22;19986;48.190;16.366;2022-11-14T20:06:11;10.10;99.90
33645;DHT22;19986;48.190;16.366;2022-11-14T20:08:37;10.20;99.90
33645;DHT22;19986;48.190;16.366;2022-11-14T20:11:04;10.20;99.90
33645;DHT22;19986;48.190;16.366;2022-11-14T20:13:35;10.20;99.90
33645;DHT22;19986;48.190;16.366;2022-11-14T20:18:35;10.20;99.90
33645;DHT22;19986;48.190;16.366;2022-11-14T20:21:06;10.20;99.90
33645;DHT22;19986;48.190;16.366;2022-11-14T20:23:33;10.20;99.90
33645;DHT22;19986;48.190;16.366;2022-11-14T20:26:00;10.10;99.90
33645;DHT22;19986;48.190;16.366;2022-11-14T20:28:27;10.10;99.90
33645;DHT22;19986;48.190;16.366;2022-11-14T20:30:53;10.20;99.90
33645;DHT22;19986;48.190;16.366;2022-11-14T20:33:20;10.20;99.90
33645;DHT22;19986;48.190;16.366;2022-11-14T20:35:47;10.20;99.90
33645;DHT22;19986;48.190;16.366;2022-11-14T20:38:13;10.20;99.90
33645;DHT22;19986;48.190;16.366;2022-11-14T20:40:39;10.10;99.90
33645;DHT22;19986;48.190;16.366;2022-11-14T20:43:05;10.20;99.90
33645;DHT22;19986;48.190;16.366;2022-11-14T20:45:32;10.20;99.90
33645;DHT22;19986;48.190;16.366;2022-11-14T20:47:59;10.20;99.90
33645;DHT22;19986;48.190;16.366;2022-11-14T20:50:29;10.20;99.90
33645;DHT22;19986;48.190;16.366;2022-11-14T20:52:56;10.10;99.90
33645;DHT22;19986;48.190;16.366;2022-11-14T20:55:22;10.10;99.90
33645;DHT22;19986;48.190;16.366;2022-11-14T20:57:48;10.10;99.90
